createdAt,value
2022-07-29T04:33:52.418Z,100.00
2022-07-29T04:36:29.324Z,100.00
2022-07-29T04:47:42.133Z,100.00
2022-07-29T04:50:10.559Z,100.00
2022-07-29T04:52:39.452Z,100.00
2022-07-29T05:00:55.629Z,100.00
2022-07-29T05:03:23.443Z,100.00
2022-07-29T05:05:51.098Z,100.00
2022-07-29T05:08:18.794Z,100.00
2022-07-29T05:10:46.558Z,100.00
2022-07-29T05:13:14.598Z,100.00
2022-07-29T05:15:42.659Z,100.00
2022-07-29T05:18:10.541Z,100.00
2022-07-29T05:20:38.389Z,100.00
2022-07-29T05:23:06.113Z,100.00
2022-07-29T05:25:44.040Z,100.00
2022-07-29T05:28:12.650Z,100.00
2022-07-29T05:30:40.372Z,100.00
2022-07-29T05:33:08.217Z,100.00
2022-07-29T05:36:00.179Z,100.00
2022-07-29T05:38:29.109Z,100.00
2022-07-29T05:40:59.243Z,100.00
2022-07-29T05:43:30.674Z,100.00
2022-07-29T05:45:58.821Z,100.00
2022-07-29T05:48:27.116Z,100.00
2022-07-29T05:50:55.794Z,100.00
2022-07-29T05:53:23.607Z,100.00
2022-07-29T05:55:51.838Z,100.00
2022-07-29T05:58:19.526Z,100.00
2022-07-29T06:00:47.322Z,99.93
2022-07-29T06:03:15.288Z,94.52
2022-07-29T06:05:43.217Z,97.99
2022-07-29T06:08:10.763Z,97.81
2022-07-29T06:10:38.796Z,84.25
2022-07-29T06:13:06.528Z,86.09
2022-07-29T06:15:34.754Z,78.16
2022-07-29T06:18:02.754Z,77.92
2022-07-29T06:20:31.620Z,76.57
2022-07-29T06:22:59.800Z,86.33
2022-07-29T06:25:30.431Z,95.96
2022-07-29T06:27:58.501Z,95.83
2022-07-29T06:30:26.273Z,97.27
2022-07-29T06:32:54.097Z,83.29
2022-07-29T06:35:41.305Z,86.65
2022-07-29T06:38:31.095Z,80.41
2022-07-29T06:41:02.163Z,85.64
2022-07-29T06:43:35.137Z,80.79
2022-07-29T06:46:04.417Z,80.62
2022-07-29T06:48:32.889Z,83.27
2022-07-29T06:51:02.853Z,79.67
2022-07-29T06:53:30.724Z,76.92
2022-07-29T06:55:59.556Z,79.11
2022-07-29T06:58:28.068Z,76.31
2022-07-29T07:00:59.292Z,76.45
2022-07-29T07:03:27.572Z,76.94
2022-07-29T07:05:55.461Z,77.40
2022-07-29T07:08:24.013Z,79.83
2022-07-29T07:10:52.350Z,72.07
2022-07-29T07:13:20.363Z,71.95
2022-07-29T07:15:49.486Z,73.74
2022-07-29T07:18:17.736Z,71.64
2022-07-29T07:20:45.637Z,69.88
2022-07-29T07:23:13.390Z,65.94
2022-07-29T07:25:41.191Z,65.84
2022-07-29T07:28:09.344Z,76.11
2022-07-29T07:30:37.109Z,79.41
2022-07-29T07:33:05.702Z,69.66
2022-07-29T07:35:33.491Z,66.66
2022-07-29T07:38:01.233Z,65.60
2022-07-29T07:40:28.976Z,68.92
2022-07-29T07:42:56.986Z,72.10
2022-07-29T07:45:24.943Z,67.50
2022-07-29T07:47:53.771Z,65.65
2022-07-29T07:50:21.673Z,64.74
2022-07-29T07:52:53.771Z,64.04
2022-07-29T07:55:21.543Z,61.92
2022-07-29T07:57:49.255Z,64.23
2022-07-29T08:00:18.419Z,64.82
2022-07-29T08:02:46.395Z,70.28
2022-07-29T08:05:17.999Z,73.44
2022-07-29T08:07:46.948Z,68.60
2022-07-29T08:10:16.031Z,74.98
2022-07-29T08:12:45.492Z,68.72
2022-07-29T08:15:13.133Z,64.72
2022-07-29T08:17:40.868Z,61.28
2022-07-29T08:20:08.828Z,60.97
2022-07-29T08:22:36.528Z,59.80
2022-07-29T08:25:04.413Z,56.29
2022-07-29T08:27:43.415Z,56.48
2022-07-29T08:30:12.541Z,62.02
2022-07-29T08:32:56.338Z,63.26
2022-07-29T08:35:24.473Z,62.49
2022-07-29T08:37:52.826Z,59.34
2022-07-29T08:40:30.542Z,60.25
2022-07-29T08:43:06.459Z,56.71
2022-07-29T08:45:51.327Z,60.91
2022-07-29T08:48:21.185Z,61.71
2022-07-29T08:50:51.298Z,58.46
2022-07-29T08:53:19.133Z,56.56
2022-07-29T08:55:48.956Z,66.00
2022-07-29T08:58:17.187Z,65.32
2022-07-29T09:00:47.065Z,62.51
2022-07-29T09:03:20.071Z,61.29
2022-07-29T09:05:48.493Z,57.45
2022-07-29T09:08:16.988Z,57.18
2022-07-29T09:10:45.222Z,59.60
2022-07-29T09:13:13.000Z,56.73
2022-07-29T09:15:40.765Z,55.44
2022-07-29T09:18:08.559Z,51.86
2022-07-29T09:21:15.353Z,52.77
2022-07-29T09:24:19.215Z,51.96
2022-07-29T09:26:47.290Z,50.96
2022-07-29T09:29:22.040Z,54.00
2022-07-29T09:31:52.922Z,58.88
2022-07-29T09:34:25.051Z,54.31
2022-07-29T09:36:53.859Z,57.09
2022-07-29T09:39:34.365Z,56.53
2022-07-29T09:42:04.435Z,53.18
2022-07-29T09:44:49.391Z,52.59
2022-07-29T09:47:18.423Z,52.56
2022-07-29T09:50:00.590Z,54.57
2022-07-29T09:52:29.228Z,53.63
2022-07-29T09:55:07.506Z,56.39
2022-07-29T09:57:35.651Z,55.03
2022-07-29T10:00:24.217Z,57.11
2022-07-29T10:02:52.286Z,61.34
2022-07-29T10:05:20.047Z,65.87
2022-07-29T10:07:53.871Z,65.90
2022-07-29T10:10:28.454Z,64.90
2022-07-29T10:13:06.356Z,66.47
2022-07-29T10:15:42.080Z,60.42
2022-07-29T10:18:10.139Z,56.04
2022-07-29T10:20:38.159Z,53.34
2022-07-29T10:23:06.217Z,52.74
2022-07-29T10:25:34.119Z,51.02
2022-07-29T10:28:01.956Z,49.22
2022-07-29T10:30:29.719Z,49.74
2022-07-29T10:33:28.598Z,48.23
2022-07-29T10:36:15.594Z,47.99
2022-07-29T10:39:03.547Z,49.61
2022-07-29T10:41:44.460Z,50.11
2022-07-29T10:44:23.244Z,48.13
2022-07-29T10:46:52.520Z,48.20
2022-07-29T10:49:30.828Z,45.97
2022-07-29T10:52:00.721Z,43.96
2022-07-29T10:54:37.715Z,43.46
2022-07-29T10:57:52.581Z,41.86
2022-07-29T11:00:17.229Z,40.25
2022-07-29T11:02:45.810Z,35.80
2022-07-29T11:05:20.719Z,35.93
2022-07-29T11:08:20.331Z,39.66
2022-07-29T11:10:49.911Z,40.84
2022-07-29T11:13:48.943Z,40.94
2022-07-29T11:16:17.233Z,41.83
2022-07-29T11:19:26.401Z,44.67
2022-07-29T11:21:58.378Z,41.38
2022-07-29T11:24:35.271Z,37.85
2022-07-29T11:27:32.930Z,35.85
2022-07-29T11:30:03.356Z,38.59
2022-07-29T11:32:40.469Z,36.39
2022-07-29T11:35:17.678Z,36.87
2022-07-29T11:38:29.305Z,34.11
2022-07-29T11:41:18.929Z,33.58
2022-07-29T11:43:50.893Z,33.03
2022-07-29T11:46:51.442Z,34.59
2022-07-29T11:49:32.541Z,36.93
2022-07-29T11:52:04.949Z,38.30
2022-07-29T11:54:38.813Z,37.81
2022-07-29T11:57:22.375Z,37.18
2022-07-29T11:59:50.812Z,34.63
2022-07-29T12:02:36.572Z,33.54
2022-07-29T12:05:10.377Z,32.10
2022-07-29T12:07:41.051Z,30.72
2022-07-29T12:10:13.297Z,30.93
2022-07-29T12:12:52.713Z,31.77
2022-07-29T12:15:45.631Z,31.63
2022-07-29T12:18:18.429Z,33.10
2022-07-29T12:20:47.132Z,35.33
2022-07-29T12:23:14.981Z,36.16
2022-07-29T12:25:44.777Z,35.83
2022-07-29T12:28:26.912Z,35.87
2022-07-29T12:30:55.633Z,36.63
2022-07-29T12:33:25.145Z,36.55
2022-07-29T12:36:10.338Z,36.56
2022-07-29T12:38:41.449Z,35.46
2022-07-29T12:41:09.023Z,33.94
2022-07-29T12:43:36.976Z,31.88
2022-07-29T12:46:15.105Z,31.00
2022-07-29T12:48:44.137Z,32.83
2022-07-29T12:51:13.465Z,34.80
2022-07-29T12:53:41.527Z,34.87
2022-07-29T12:56:40.548Z,36.57
2022-07-29T12:59:20.739Z,40.83
2022-07-29T13:01:50.778Z,41.56
2022-07-29T13:04:28.736Z,41.32
2022-07-29T13:07:07.536Z,41.93
2022-07-29T13:09:44.037Z,42.05
2022-07-29T13:12:12.909Z,42.19
2022-07-29T13:14:47.291Z,45.99
2022-07-29T13:17:16.844Z,47.23
2022-07-29T13:19:44.440Z,46.42
2022-07-29T13:22:14.101Z,48.23
2022-07-29T13:24:48.543Z,49.64
2022-07-29T13:27:19.939Z,51.35
2022-07-29T13:29:47.718Z,51.16
2022-07-29T13:32:15.377Z,52.70
2022-07-29T13:34:43.083Z,53.12
2022-07-29T13:37:10.691Z,51.71
2022-07-29T13:39:38.637Z,50.66
2022-07-29T13:42:10.772Z,49.56
2022-07-29T13:44:39.178Z,50.00
2022-07-29T13:47:10.362Z,48.59
2022-07-29T13:49:38.268Z,48.27
2022-07-29T13:52:08.502Z,53.75
2022-07-29T13:54:42.811Z,53.52
2022-07-29T13:57:13.739Z,64.83
2022-07-29T13:59:41.875Z,90.04
2022-07-29T14:02:10.148Z,92.41
2022-07-29T14:04:39.662Z,89.10
2022-07-29T14:07:07.773Z,88.04
2022-07-29T14:09:41.426Z,88.59
2022-07-29T14:12:10.033Z,90.47
2022-07-29T14:14:37.888Z,90.61
2022-07-29T14:17:07.726Z,87.57
2022-07-29T14:19:39.406Z,84.65
2022-07-29T14:22:08.656Z,79.92
2022-07-29T14:24:37.483Z,76.80
2022-07-29T14:27:06.523Z,73.19
2022-07-29T14:29:37.668Z,75.21
2022-07-29T14:32:10.208Z,74.98
2022-07-29T14:34:38.020Z,77.92
2022-07-29T14:37:09.557Z,75.37
2022-07-29T14:39:43.909Z,77.47
2022-07-29T14:42:12.561Z,76.99
2022-07-29T14:44:42.520Z,78.79
2022-07-29T14:47:10.552Z,78.87
2022-07-29T14:49:38.200Z,76.38
2022-07-29T14:52:05.957Z,78.97
2022-07-29T14:54:33.773Z,75.96
2022-07-29T14:57:01.975Z,75.31
2022-07-29T14:59:29.625Z,74.69
2022-07-29T15:01:57.533Z,73.67
2022-07-29T15:04:25.312Z,73.92
2022-07-29T15:06:53.029Z,74.34
2022-07-29T15:09:20.777Z,73.10
2022-07-29T15:11:48.422Z,71.79
2022-07-29T15:14:16.446Z,72.11
2022-07-29T15:16:46.712Z,71.93
2022-07-29T15:19:15.909Z,71.21
2022-07-29T15:21:48.513Z,70.42
2022-07-29T15:24:17.914Z,72.68
2022-07-29T15:26:45.842Z,72.94
2022-07-29T15:29:14.420Z,71.70
2022-07-29T15:31:42.479Z,70.30
2022-07-29T15:34:10.514Z,74.39
2022-07-29T15:36:54.205Z,73.09
2022-07-29T15:39:25.323Z,65.15
2022-07-29T15:41:53.486Z,63.33
2022-07-29T15:44:21.737Z,62.89
2022-07-29T15:47:05.756Z,62.52
2022-07-29T15:49:47.497Z,61.50
2022-07-29T15:52:19.410Z,60.54
2022-07-29T15:54:55.381Z,62.72
2022-07-29T15:57:23.316Z,62.85
2022-07-29T15:59:51.018Z,62.87
2022-07-29T16:02:18.587Z,62.54
2022-07-29T16:04:46.314Z,62.41
2022-07-29T16:07:14.207Z,62.65
2022-07-29T16:09:42.915Z,63.14
2022-07-29T16:12:14.744Z,63.05
2022-07-29T16:14:44.501Z,63.04
2022-07-29T16:17:14.511Z,62.43
2022-07-29T16:19:43.656Z,61.80
2022-07-29T16:22:11.752Z,60.30
2022-07-29T16:24:39.843Z,59.59
2022-07-29T16:27:07.840Z,59.92
2022-07-29T16:29:37.181Z,59.15
2022-07-29T16:32:06.030Z,59.19
2022-07-29T16:34:35.168Z,60.86
2022-07-29T16:37:04.299Z,61.76
2022-07-29T16:39:32.811Z,62.64
2022-07-29T16:42:03.026Z,63.15
2022-07-29T16:44:33.825Z,63.24
2022-07-29T16:47:02.547Z,63.31
2022-07-29T16:49:31.006Z,64.13
2022-07-29T16:51:59.094Z,65.15
2022-07-29T16:54:27.394Z,65.47
2022-07-29T16:56:56.199Z,65.85
2022-07-29T16:59:24.069Z,65.40
2022-07-29T17:01:52.027Z,66.20
2022-07-29T17:04:20.043Z,65.47
2022-07-29T17:06:50.951Z,65.45
2022-07-29T17:09:18.665Z,65.27
2022-07-29T17:11:52.910Z,64.75
2022-07-29T17:14:25.267Z,65.09
2022-07-29T17:17:00.612Z,65.94
2022-07-29T17:19:34.235Z,67.34
2022-07-29T17:22:17.217Z,71.66
2022-07-29T17:24:48.565Z,81.50
2022-07-29T17:27:16.336Z,85.81
2022-07-29T17:29:44.223Z,85.35
2022-07-29T17:32:11.910Z,85.86
2022-07-29T17:34:40.411Z,85.69
2022-07-29T17:37:09.500Z,85.52
2022-07-29T17:39:40.743Z,86.48
2022-07-29T17:42:12.597Z,84.10
2022-07-29T17:44:40.481Z,77.58
2022-07-29T17:47:15.728Z,75.88
2022-07-29T17:49:45.477Z,79.90
2022-07-29T17:52:13.847Z,77.80
2022-07-29T17:54:41.884Z,74.97
2022-07-29T17:57:09.776Z,74.40
2022-07-29T17:59:37.434Z,71.91
2022-07-29T18:02:05.140Z,74.04
2022-07-29T18:04:32.952Z,76.63
2022-07-29T18:07:01.072Z,77.08
2022-07-29T18:09:29.109Z,78.19
2022-07-29T18:11:56.742Z,78.91
2022-07-29T18:14:24.481Z,79.75
2022-07-29T18:16:52.074Z,81.83
2022-07-29T18:19:19.899Z,84.12
2022-07-29T18:21:53.989Z,84.68
2022-07-29T18:24:27.686Z,85.94
2022-07-29T18:26:56.548Z,86.24
2022-07-29T18:29:24.529Z,86.15
2022-07-29T18:31:52.153Z,86.18
2022-07-29T18:34:19.770Z,86.50
2022-07-29T18:36:47.733Z,85.61
2022-07-29T18:39:20.855Z,85.92
2022-07-29T18:41:51.251Z,85.89
2022-07-29T18:44:22.046Z,86.18
2022-07-29T18:46:51.635Z,85.23
2022-07-29T18:49:19.649Z,84.56
2022-07-29T18:51:48.486Z,85.23
2022-07-29T18:54:17.528Z,84.44
2022-07-29T18:56:46.506Z,83.99
2022-07-29T18:59:19.777Z,84.86
2022-07-29T19:01:47.809Z,84.77
2022-07-29T19:04:16.523Z,84.44
2022-07-29T19:06:44.229Z,84.54
2022-07-29T19:09:12.136Z,84.97
2022-07-29T19:11:40.117Z,84.30
2022-07-29T19:14:07.925Z,84.91
2022-07-29T19:16:35.961Z,86.95
2022-07-29T19:19:03.955Z,88.96
